createdAt,value
2023-05-06T00:00:47.078Z,16.93
2023-05-06T00:03:19.910Z,16.97
2023-05-06T00:05:52.769Z,16.97
2023-05-06T00:08:27.184Z,16.99
2023-05-06T00:11:00.441Z,16.95
2023-05-06T00:13:33.233Z,16.96
2023-05-06T00:16:06.850Z,16.97
2023-05-06T00:18:39.713Z,17.01
2023-05-06T00:21:12.451Z,17.07
2023-05-06T00:23:46.548Z,17.09
2023-05-06T00:26:19.866Z,17.04
2023-05-06T00:28:52.856Z,17.02
2023-05-06T00:31:25.808Z,17.02
2023-05-06T00:33:58.700Z,16.97
2023-05-06T00:36:31.648Z,16.98
2023-05-06T00:39:06.101Z,16.96
2023-05-06T00:41:39.002Z,16.95
2023-05-06T00:44:14.145Z,16.96
2023-05-06T00:46:46.986Z,16.89
2023-05-06T00:49:20.427Z,16.81
2023-05-06T00:51:55.008Z,16.82
2023-05-06T00:54:29.790Z,16.80
2023-05-06T00:57:03.953Z,16.81
2023-05-06T00:59:37.172Z,16.76
2023-05-06T01:02:09.997Z,16.72
2023-05-06T01:04:42.979Z,16.74
2023-05-06T01:07:27.572Z,16.70
2023-05-06T01:10:08.966Z,16.71
2023-05-06T01:12:47.621Z,16.65
2023-05-06T01:15:25.202Z,16.70
2023-05-06T01:18:02.160Z,16.67
2023-05-06T01:20:38.362Z,16.63
2023-05-06T01:23:14.816Z,16.57
2023-05-06T01:25:47.683Z,16.56
2023-05-06T01:28:21.964Z,16.59
2023-05-06T01:31:00.576Z,16.55
2023-05-06T01:33:37.933Z,16.50
2023-05-06T01:36:17.150Z,16.49
2023-05-06T01:38:58.947Z,16.48
2023-05-06T01:41:34.423Z,16.47
2023-05-06T01:44:09.812Z,16.44
2023-05-06T01:46:44.383Z,16.45
2023-05-06T01:49:19.660Z,16.38
2023-05-06T01:51:55.447Z,16.37
2023-05-06T01:54:34.140Z,16.30
2023-05-06T01:57:07.837Z,16.22
2023-05-06T01:59:40.598Z,16.18
2023-05-06T02:02:13.706Z,16.13
2023-05-06T02:04:46.692Z,16.15
2023-05-06T02:07:20.230Z,16.13
2023-05-06T02:09:54.421Z,16.10
2023-05-06T02:12:27.667Z,16.11
2023-05-06T02:15:01.023Z,16.13
2023-05-06T02:17:36.283Z,16.09
2023-05-06T02:20:10.924Z,16.10
2023-05-06T02:22:43.744Z,16.09
2023-05-06T02:25:17.996Z,16.03
2023-05-06T02:27:51.627Z,16.07
2023-05-06T02:30:24.518Z,16.00
2023-05-06T02:32:57.435Z,15.95
2023-05-06T02:35:30.269Z,15.90
2023-05-06T02:38:03.122Z,15.94
2023-05-06T02:40:37.214Z,15.90
2023-05-06T02:43:09.950Z,15.90
2023-05-06T02:45:42.930Z,15.89
2023-05-06T02:48:16.553Z,15.86
2023-05-06T02:50:49.286Z,15.88
2023-05-06T02:53:22.138Z,15.85
2023-05-06T02:55:56.291Z,15.82
2023-05-06T02:58:29.415Z,15.78
2023-05-06T03:01:02.571Z,15.80
2023-05-06T03:03:35.559Z,15.82
2023-05-06T03:06:08.296Z,15.78
2023-05-06T03:08:41.362Z,15.72
2023-05-06T03:11:15.856Z,15.75
2023-05-06T03:13:48.819Z,15.74
2023-05-06T03:16:21.616Z,15.67
2023-05-06T03:18:58.111Z,15.71
2023-05-06T03:21:31.590Z,15.69
2023-05-06T03:24:06.569Z,15.66
2023-05-06T03:26:41.852Z,15.67
2023-05-06T03:29:16.455Z,15.65
2023-05-06T03:31:51.589Z,15.62
2023-05-06T03:34:26.308Z,15.59
2023-05-06T03:37:00.289Z,15.63
2023-05-06T03:39:34.390Z,15.59
2023-05-06T03:42:10.610Z,15.57
2023-05-06T03:44:43.601Z,15.55
2023-05-06T03:47:17.350Z,15.56
2023-05-06T03:49:53.116Z,15.54
2023-05-06T03:52:26.716Z,15.51
2023-05-06T03:55:02.332Z,15.51
2023-05-06T03:57:38.658Z,15.53
2023-05-06T04:00:13.703Z,15.46
2023-05-06T04:02:49.796Z,15.46
2023-05-06T04:05:28.914Z,15.45
2023-05-06T04:08:01.725Z,15.41
2023-05-06T04:10:39.931Z,15.49
2023-05-06T04:13:20.016Z,15.49
2023-05-06T04:15:53.137Z,15.51
2023-05-06T04:18:30.588Z,15.51
2023-05-06T04:21:12.205Z,15.49
2023-05-06T04:23:47.618Z,15.48
2023-05-06T04:26:24.425Z,15.54
2023-05-06T04:28:59.253Z,15.50
2023-05-06T04:31:34.559Z,15.51
2023-05-06T04:34:10.900Z,15.52
2023-05-06T04:36:44.242Z,15.53
2023-05-06T04:39:34.282Z,15.49
2023-05-06T04:42:07.521Z,15.51
2023-05-06T04:44:49.836Z,15.49
2023-05-06T04:47:25.513Z,15.52
2023-05-06T04:49:59.296Z,15.52
2023-05-06T04:52:33.589Z,15.50
2023-05-06T04:55:07.118Z,15.49
2023-05-06T04:57:43.126Z,15.47
2023-05-06T05:00:19.692Z,15.48
2023-05-06T05:02:52.927Z,15.50
2023-05-06T05:05:26.326Z,15.54
2023-05-06T05:08:04.765Z,15.49
2023-05-06T05:10:42.414Z,15.53
2023-05-06T05:13:17.079Z,15.57
2023-05-06T05:15:55.647Z,15.59
2023-05-06T05:18:35.281Z,15.58
2023-05-06T05:21:14.193Z,15.56
2023-05-06T05:23:47.043Z,15.58
2023-05-06T05:26:20.257Z,15.60
2023-05-06T05:28:54.461Z,15.63
2023-05-06T05:31:31.299Z,15.62
2023-05-06T05:34:04.643Z,15.62
2023-05-06T05:36:37.533Z,15.70
2023-05-06T05:39:13.959Z,15.72
2023-05-06T05:41:50.918Z,15.72
2023-05-06T05:44:25.289Z,15.77
2023-05-06T05:46:59.858Z,15.77
2023-05-06T05:49:33.195Z,15.80
2023-05-06T05:52:07.401Z,15.87
2023-05-06T05:54:40.517Z,15.93
2023-05-06T05:57:13.542Z,15.92
2023-05-06T05:59:47.556Z,15.93
2023-05-06T06:02:21.896Z,15.94
2023-05-06T06:04:55.522Z,15.94
2023-05-06T06:07:28.971Z,15.95
2023-05-06T06:10:02.199Z,15.98
2023-05-06T06:12:35.291Z,16.02
2023-05-06T06:15:11.101Z,16.06
2023-05-06T06:17:46.060Z,16.11
2023-05-06T06:20:19.509Z,16.19
2023-05-06T06:22:53.423Z,16.22
2023-05-06T06:25:26.300Z,16.34
2023-05-06T06:27:59.732Z,16.32
2023-05-06T06:30:32.508Z,16.31
2023-05-06T06:33:09.651Z,16.41
2023-05-06T06:35:42.553Z,16.50
2023-05-06T06:38:15.250Z,16.62
2023-05-06T06:40:48.046Z,16.76
2023-05-06T06:43:20.908Z,16.74
2023-05-06T06:46:02.777Z,16.91
2023-05-06T06:48:36.933Z,17.03
2023-05-06T06:51:09.815Z,17.13
2023-05-06T06:53:43.052Z,17.23
2023-05-06T06:56:16.314Z,17.13
2023-05-06T06:58:49.864Z,17.41
2023-05-06T07:01:24.905Z,17.59
2023-05-06T07:03:59.204Z,17.73
2023-05-06T07:06:32.029Z,17.84
2023-05-06T07:09:05.009Z,17.90
2023-05-06T07:11:37.829Z,18.04
2023-05-06T07:14:10.694Z,18.09
2023-05-06T07:16:45.887Z,18.19
2023-05-06T07:19:23.080Z,18.21
2023-05-06T07:21:56.979Z,18.32
2023-05-06T07:24:30.138Z,18.43
2023-05-06T07:27:03.034Z,18.50
2023-05-06T07:29:39.862Z,18.58
2023-05-06T07:32:12.921Z,18.59
2023-05-06T07:34:46.787Z,18.64
2023-05-06T07:37:19.790Z,18.72
2023-05-06T07:39:52.850Z,18.78
2023-05-06T07:42:25.986Z,18.83
2023-05-06T07:44:58.836Z,18.86
2023-05-06T07:47:32.892Z,18.87
2023-05-06T07:50:08.314Z,18.99
2023-05-06T07:52:41.489Z,19.05
2023-05-06T07:55:14.349Z,19.12
2023-05-06T07:57:47.214Z,19.17
2023-05-06T08:00:20.490Z,19.25
2023-05-06T08:02:53.786Z,19.32
2023-05-06T08:05:28.061Z,19.58
2023-05-06T08:08:00.815Z,19.66
2023-05-06T08:10:33.880Z,19.64
2023-05-06T08:13:06.738Z,19.76
2023-05-06T08:15:40.304Z,19.92
2023-05-06T08:18:21.875Z,20.07
2023-05-06T08:20:57.314Z,20.21
2023-05-06T08:23:30.189Z,20.43
2023-05-06T08:26:02.993Z,20.47
2023-05-06T08:28:36.094Z,20.67
2023-05-06T08:31:09.040Z,20.77
2023-05-06T08:33:41.854Z,20.82
2023-05-06T08:36:16.344Z,20.90
2023-05-06T08:38:50.922Z,21.33
2023-05-06T08:41:25.579Z,21.34
2023-05-06T08:43:59.673Z,21.47
2023-05-06T08:46:32.804Z,21.30
2023-05-06T08:49:05.919Z,21.40
2023-05-06T08:51:43.427Z,21.75
2023-05-06T08:54:16.951Z,21.67
2023-05-06T08:56:54.703Z,21.79
2023-05-06T08:59:30.453Z,22.03
2023-05-06T09:02:04.108Z,22.01
2023-05-06T09:04:38.371Z,22.05
2023-05-06T09:07:12.742Z,21.87
2023-05-06T09:09:45.647Z,22.04
2023-05-06T09:12:18.502Z,22.38
2023-05-06T09:14:52.395Z,22.46
2023-05-06T09:17:26.778Z,22.22
2023-05-06T09:20:00.358Z,21.94
2023-05-06T09:22:34.679Z,22.21
2023-05-06T09:25:08.681Z,22.68
2023-05-06T09:27:41.834Z,22.70
2023-05-06T09:30:15.544Z,23.04
2023-05-06T09:32:49.746Z,23.27
2023-05-06T09:35:22.748Z,23.33
2023-05-06T09:37:57.627Z,23.43
2023-05-06T09:40:39.942Z,23.44
2023-05-06T09:43:15.574Z,23.37
2023-05-06T09:45:49.602Z,23.30
2023-05-06T09:48:23.303Z,23.42
2023-05-06T09:50:57.138Z,23.47
2023-05-06T09:53:33.272Z,23.66
2023-05-06T09:56:07.451Z,23.88
2023-05-06T09:58:40.575Z,23.82
2023-05-06T10:01:19.294Z,23.98
2023-05-06T10:04:02.077Z,24.18
2023-05-06T10:06:39.431Z,24.32
2023-05-06T10:09:14.746Z,24.41
2023-05-06T10:11:49.358Z,24.55
2023-05-06T10:14:22.237Z,24.42
2023-05-06T10:16:56.239Z,24.35
2023-05-06T10:19:29.640Z,24.56
2023-05-06T10:22:07.823Z,24.47
2023-05-06T10:24:48.330Z,24.69
2023-05-06T10:27:24.875Z,24.90
2023-05-06T10:30:00.473Z,24.86
2023-05-06T10:32:35.923Z,24.93
2023-05-06T10:35:13.458Z,25.10
2023-05-06T10:37:48.800Z,25.18
2023-05-06T10:40:24.295Z,25.00
2023-05-06T10:43:21.940Z,24.93
2023-05-06T10:46:02.601Z,25.07
2023-05-06T10:48:36.683Z,25.10
2023-05-06T10:51:27.202Z,25.15
2023-05-06T10:54:05.652Z,24.72
2023-05-06T10:57:02.647Z,24.52
2023-05-06T10:59:35.686Z,25.10
2023-05-06T11:02:12.281Z,25.35
2023-05-06T11:04:54.630Z,25.35
2023-05-06T11:07:28.074Z,25.26
2023-05-06T11:10:04.814Z,25.19
2023-05-06T11:12:50.391Z,25.50
2023-05-06T11:15:27.837Z,25.19
2023-05-06T11:18:00.668Z,25.51
2023-05-06T11:20:33.520Z,25.59
2023-05-06T11:23:06.405Z,25.72
2023-05-06T11:25:42.591Z,25.71
2023-05-06T11:28:17.199Z,25.65
2023-05-06T11:30:56.132Z,25.57
2023-05-06T11:33:33.614Z,25.48
2023-05-06T11:36:07.758Z,25.53
2023-05-06T11:38:44.099Z,25.35
2023-05-06T11:41:17.498Z,25.56
2023-05-06T11:43:52.792Z,25.52
2023-05-06T11:46:26.099Z,25.66
2023-05-06T11:48:58.986Z,25.75
2023-05-06T11:51:32.570Z,25.70
2023-05-06T11:54:10.020Z,25.89
2023-05-06T11:56:48.716Z,26.16
2023-05-06T11:59:30.230Z,26.16
2023-05-06T12:02:05.643Z,25.98
2023-05-06T12:04:55.947Z,26.09
2023-05-06T12:07:33.623Z,26.35
2023-05-06T12:10:08.590Z,26.38
2023-05-06T12:12:41.783Z,26.30
2023-05-06T12:15:16.291Z,26.61
2023-05-06T12:17:49.362Z,26.71
2023-05-06T12:20:22.260Z,26.72
2023-05-06T12:23:06.916Z,26.29
2023-05-06T12:25:40.791Z,26.56
2023-05-06T12:28:16.624Z,26.63
2023-05-06T12:30:50.774Z,26.84
2023-05-06T12:33:24.427Z,27.06
2023-05-06T12:36:07.929Z,27.10
2023-05-06T12:38:50.373Z,26.97
2023-05-06T12:41:24.791Z,27.14
2023-05-06T12:43:57.573Z,27.24
2023-05-06T12:46:31.947Z,27.34
2023-05-06T12:49:05.580Z,27.45
2023-05-06T12:51:38.378Z,27.45
2023-05-06T12:54:25.832Z,27.30
2023-05-06T12:56:58.575Z,27.56
2023-05-06T12:59:31.838Z,27.62
2023-05-06T13:02:05.856Z,27.68
2023-05-06T13:04:38.779Z,27.71
2023-05-06T13:07:12.067Z,27.72
2023-05-06T13:09:44.977Z,27.74
2023-05-06T13:12:17.710Z,27.68
2023-05-06T13:14:50.461Z,27.47
2023-05-06T13:17:25.122Z,27.43
2023-05-06T13:19:58.636Z,27.64
2023-05-06T13:22:40.331Z,27.66
2023-05-06T13:25:20.062Z,27.67
2023-05-06T13:27:52.675Z,27.72
2023-05-06T13:30:25.586Z,27.72
2023-05-06T13:32:59.825Z,27.58
2023-05-06T13:35:32.734Z,27.77
2023-05-06T13:38:05.442Z,27.73
2023-05-06T13:40:38.383Z,27.71
2023-05-06T13:43:11.478Z,27.58
2023-05-06T13:45:44.970Z,27.55
2023-05-06T13:48:20.221Z,27.45
2023-05-06T13:50:52.949Z,27.42
2023-05-06T13:53:25.633Z,27.25
2023-05-06T13:55:58.276Z,27.13
2023-05-06T13:58:31.034Z,27.07
2023-05-06T14:01:04.468Z,27.09
2023-05-06T14:03:38.515Z,27.02
2023-05-06T14:06:11.692Z,26.86
2023-05-06T14:08:44.492Z,26.92
2023-05-06T14:11:17.150Z,26.67
2023-05-06T14:13:51.676Z,26.68
2023-05-06T14:16:24.653Z,26.61
2023-05-06T14:18:59.284Z,26.59
2023-05-06T14:21:32.149Z,26.53
2023-05-06T14:24:07.341Z,26.51
2023-05-06T14:26:41.546Z,26.50
2023-05-06T14:29:14.419Z,26.45
2023-05-06T14:31:48.087Z,26.03
2023-05-06T14:34:23.570Z,26.13
2023-05-06T14:36:57.626Z,26.25
2023-05-06T14:39:30.828Z,26.40
2023-05-06T14:42:03.953Z,26.31
2023-05-06T14:44:36.889Z,26.28
2023-05-06T14:47:09.981Z,26.22
2023-05-06T14:52:38.901Z,26.25
2023-05-06T14:55:12.882Z,26.24
2023-05-06T14:57:45.925Z,26.22
2023-05-06T15:00:20.281Z,26.23
2023-05-06T15:02:53.233Z,26.18
2023-05-06T15:05:26.134Z,26.25
2023-05-06T15:08:00.420Z,26.23
2023-05-06T15:10:33.964Z,26.22
2023-05-06T15:13:07.006Z,26.13
2023-05-06T15:15:39.865Z,26.13
2023-05-06T15:18:13.312Z,26.12
2023-05-06T15:20:46.234Z,26.11
2023-05-06T15:23:20.618Z,26.15
2023-05-06T15:25:53.736Z,26.13
2023-05-06T15:28:26.804Z,26.09
2023-05-06T15:30:59.573Z,26.01
2023-05-06T15:33:32.342Z,26.08
2023-05-06T15:36:06.154Z,26.05
2023-05-06T15:38:59.879Z,25.98
2023-05-06T15:41:34.652Z,25.93
2023-05-06T15:44:09.966Z,25.95
2023-05-06T15:46:43.194Z,25.86
2023-05-06T15:49:47.452Z,25.87
2023-05-06T15:52:14.619Z,25.78
2023-05-06T15:54:50.078Z,25.77
2023-05-06T15:57:23.403Z,25.78
2023-05-06T15:59:56.897Z,25.71
2023-05-06T16:02:29.716Z,25.62
2023-05-06T16:05:03.117Z,25.58
2023-05-06T16:07:35.999Z,25.48
2023-05-06T16:10:10.722Z,25.44
2023-05-06T16:12:44.271Z,25.32
2023-05-06T16:15:17.551Z,25.18
2023-05-06T16:17:50.389Z,25.05
2023-05-06T16:20:23.960Z,24.92
2023-05-06T16:22:56.867Z,24.83
2023-05-06T16:25:32.749Z,24.74
2023-05-06T16:28:05.772Z,24.69
2023-05-06T16:30:40.624Z,24.71
2023-05-06T16:33:14.506Z,24.62
2023-05-06T16:35:47.233Z,24.54
2023-05-06T16:38:20.049Z,24.42
2023-05-06T16:40:54.134Z,24.49
2023-05-06T16:43:27.255Z,24.50
2023-05-06T16:46:01.261Z,24.46
2023-05-06T16:48:34.507Z,24.45
2023-05-06T16:51:07.719Z,24.38
2023-05-06T16:53:40.755Z,24.35
2023-05-06T16:56:15.055Z,24.33
2023-05-06T16:58:47.850Z,24.28
2023-05-06T17:01:20.714Z,24.21
2023-05-06T17:03:53.512Z,24.12
2023-05-06T17:06:29.871Z,24.09
2023-05-06T17:09:03.241Z,24.07
2023-05-06T17:11:37.505Z,24.02
2023-05-06T17:14:11.122Z,23.98
2023-05-06T17:16:44.141Z,23.92
2023-05-06T17:19:16.956Z,23.93
2023-05-06T17:21:49.670Z,23.88
2023-05-06T17:24:22.686Z,23.83
2023-05-06T17:26:57.242Z,23.83
2023-05-06T17:29:30.195Z,23.77
2023-05-06T17:32:03.303Z,23.75
2023-05-06T17:34:36.799Z,23.70
2023-05-06T17:37:09.909Z,23.70
2023-05-06T17:39:42.887Z,23.63
2023-05-06T17:42:21.909Z,23.61
2023-05-06T17:44:54.834Z,23.59
2023-05-06T17:47:30.008Z,23.56
2023-05-06T17:50:03.431Z,23.52
2023-05-06T17:52:36.336Z,23.47
2023-05-06T17:55:16.372Z,23.42
2023-05-06T17:57:52.519Z,23.41
2023-05-06T18:00:26.848Z,23.37
2023-05-06T18:03:00.545Z,23.30
2023-05-06T18:05:34.570Z,23.30
2023-05-06T18:08:09.405Z,23.20
2023-05-06T18:10:43.062Z,23.21
2023-05-06T18:13:17.523Z,23.17
2023-05-06T18:15:50.329Z,23.15
2023-05-06T18:18:23.004Z,23.06
2023-05-06T18:20:55.743Z,23.04
2023-05-06T18:23:29.604Z,23.02
2023-05-06T18:26:05.240Z,22.95
2023-05-06T18:28:41.379Z,22.92
2023-05-06T18:31:14.246Z,22.88
2023-05-06T18:33:47.081Z,22.84
2023-05-06T18:36:19.986Z,22.83
2023-05-06T18:38:55.179Z,22.83
2023-05-06T18:41:27.926Z,22.74
2023-05-06T18:44:02.577Z,22.70
2023-05-06T18:46:35.587Z,22.66
2023-05-06T18:49:08.747Z,22.64
2023-05-06T18:51:41.517Z,22.61
2023-05-06T18:54:16.166Z,22.47
2023-05-06T18:56:49.208Z,22.54
2023-05-06T18:59:23.425Z,22.39
2023-05-06T19:01:56.382Z,22.34
2023-05-06T19:04:29.318Z,22.30
2023-05-06T19:07:02.396Z,22.30
2023-05-06T19:09:37.025Z,22.24
2023-05-06T19:12:09.881Z,22.22
2023-05-06T19:14:46.207Z,22.16
2023-05-06T19:17:19.047Z,22.13
2023-05-06T19:19:51.893Z,22.11
2023-05-06T19:22:24.736Z,22.03
2023-05-06T19:24:57.534Z,21.99
2023-05-06T19:27:30.166Z,21.95
2023-05-06T19:30:05.068Z,21.93
2023-05-06T19:32:40.336Z,21.92
2023-05-06T19:35:13.299Z,21.86
2023-05-06T19:37:47.040Z,21.86
2023-05-06T19:40:22.049Z,21.84
2023-05-06T19:42:54.945Z,21.85
2023-05-06T19:45:28.945Z,21.68
2023-05-06T19:48:04.196Z,21.71
2023-05-06T19:50:37.351Z,21.68
2023-05-06T19:53:10.021Z,21.67
2023-05-06T19:55:43.540Z,21.61
2023-05-06T19:58:17.308Z,21.59
2023-05-06T20:00:55.211Z,21.46
2023-05-06T20:03:30.501Z,21.36
2023-05-06T20:06:04.088Z,21.40
2023-05-06T20:08:37.034Z,21.41
2023-05-06T20:11:09.724Z,21.39
2023-05-06T20:13:42.511Z,21.24
2023-05-06T20:16:17.099Z,21.33
2023-05-06T20:18:51.482Z,21.16
2023-05-06T20:21:24.270Z,21.24
2023-05-06T20:23:56.938Z,21.14
2023-05-06T20:26:30.029Z,21.18
2023-05-06T20:29:02.982Z,21.11
2023-05-06T20:31:37.027Z,21.06
2023-05-06T20:34:09.996Z,21.08
2023-05-06T20:36:43.084Z,21.00
2023-05-06T20:39:15.872Z,21.01
2023-05-06T20:41:48.881Z,21.06
2023-05-06T20:44:21.643Z,20.97
2023-05-06T20:46:55.754Z,21.00
2023-05-06T20:49:30.252Z,20.97
2023-05-06T20:52:04.535Z,20.83
2023-05-06T20:54:37.705Z,20.82
2023-05-06T20:57:11.263Z,20.78
2023-05-06T20:59:44.777Z,20.78
2023-05-06T21:02:19.203Z,20.79
2023-05-06T21:04:52.069Z,20.73
2023-05-06T21:07:25.262Z,20.75
2023-05-06T21:09:58.029Z,20.66
2023-05-06T21:12:31.270Z,20.64
2023-05-06T21:15:04.529Z,20.61
2023-05-06T21:17:38.796Z,20.62
2023-05-06T21:20:12.822Z,20.62
2023-05-06T21:22:45.608Z,20.58
2023-05-06T21:25:18.325Z,20.58
2023-05-06T21:27:51.439Z,20.57
2023-05-06T21:30:24.252Z,20.54
2023-05-06T21:32:58.525Z,20.46
2023-05-06T21:35:31.656Z,20.44
2023-05-06T21:38:05.056Z,20.49
2023-05-06T21:40:39.412Z,20.42
2023-05-06T21:43:12.790Z,20.39
2023-05-06T21:45:45.739Z,20.42
2023-05-06T21:48:19.764Z,20.34
2023-05-06T21:50:54.837Z,20.32
2023-05-06T21:53:27.672Z,20.26
2023-05-06T21:56:00.680Z,20.28
2023-05-06T21:58:33.504Z,20.23
2023-05-06T22:01:06.793Z,20.27
2023-05-06T22:03:43.405Z,20.22
2023-05-06T22:06:19.763Z,20.20
2023-05-06T22:08:53.365Z,20.14
2023-05-06T22:11:28.037Z,20.17
2023-05-06T22:14:01.390Z,20.09
2023-05-06T22:16:35.562Z,20.07
2023-05-06T22:19:10.229Z,20.00
2023-05-06T22:21:43.063Z,20.02
2023-05-06T22:24:15.853Z,20.02
2023-05-06T22:26:49.413Z,20.01
2023-05-06T22:29:22.507Z,20.04
2023-05-06T22:31:55.393Z,19.92
2023-05-06T22:34:30.608Z,19.91
2023-05-06T22:37:09.009Z,19.93
2023-05-06T22:39:42.263Z,19.94
2023-05-06T22:42:15.371Z,19.93
2023-05-06T22:44:48.145Z,19.90
2023-05-06T22:47:21.445Z,19.88
2023-05-06T22:49:56.527Z,19.84
2023-05-06T22:52:29.227Z,19.79
2023-05-06T22:55:02.297Z,19.76
2023-05-06T22:57:34.909Z,19.78
2023-05-06T23:00:12.702Z,19.72
2023-05-06T23:02:47.075Z,19.68
2023-05-06T23:05:21.424Z,19.70
2023-05-06T23:07:54.277Z,19.65
2023-05-06T23:10:27.965Z,19.65
2023-05-06T23:13:05.253Z,19.63
2023-05-06T23:15:38.524Z,19.69
2023-05-06T23:18:15.966Z,19.62
2023-05-06T23:20:51.351Z,19.58
2023-05-06T23:23:24.065Z,19.56
2023-05-06T23:25:56.948Z,19.51
2023-05-06T23:28:29.602Z,19.49
2023-05-06T23:31:02.385Z,19.50
2023-05-06T23:33:35.423Z,19.55
2023-05-06T23:36:09.729Z,19.52
2023-05-06T23:38:42.613Z,19.52
2023-05-06T23:41:15.633Z,19.51
2023-05-06T23:43:48.570Z,19.48
2023-05-06T23:46:21.399Z,19.44
2023-05-06T23:48:54.143Z,19.45
2023-05-06T23:51:28.276Z,19.39
2023-05-06T23:54:01.063Z,19.31
2023-05-06T23:56:33.913Z,19.27
2023-05-06T23:59:06.743Z,19.29
